Date,TemperatureHighF,TemperatureAvgF,TemperatureLowF,DewpointHighF,DewpointAvgF,DewpointLowF,HumidityHigh,HumidityAvg,HumidityLow,PressureMaxIn,PressureMinIn,WindSpeedMaxMPH,WindSpeedAvgMPH,GustSpeedMaxMPH,PrecipitationSumIn
2013-1-1,79,66,54,61,58,52,95,76,52,30.15,29.97,18,1,18,0.00
2013-1-2,83,71,64,71,66,61,95,86,64,30.00,29.93,12,1,14,0.00
2013-1-3,77,66,60,69,64,58,97,93,74,30.10,29.96,15,2,15,0.26
2013-1-4,62,59,56,61,58,55,99,95,89,30.22,30.09,12,2,12,0.07
2013-1-5,73,63,57,62,58,52,95,82,66,30.23,30.12,16,3,16,0.00
2013-1-6,81,68,62,70,64,60,96,88,66,30.12,30.01,10,2,11,0.01
2013-1-7,67,64,60,64,60,54,97,87,72,30.15,30.04,17,5,17,0.01
2013-1-8,82,72,62,70,65,60,96,81,61,30.15,30.06,12,3,12,0.00
2013-1-9,84,76,70,72,69,66,95,79,58,30.22,30.09,16,3,16,0.00
2013-1-10,82,76,69,71,67,64,96,77,54,30.22,30.13,18,4,18,0.00
2013-1-11,83,73,64,69,65,62,95,76,53,30.18,30.07,16,2,17,0.00
2013-1-12,83,73,66,70,67,64,96,81,58,30.10,30.01,15,2,16,0.00
2013-1-13,84,74,67,69,66,64,92,77,56,30.10,29.99,11,2,14,0.00
2013-1-14,83,71,64,67,62,60,94,75,48,30.12,30.04,13,1,13,0.00
2013-1-15,86,71,62,68,64,60,96,80,51,30.08,29.98,11,1,12,0.00
2013-1-16,85,72,63,68,64,61,96,80,46,30.04,29.94,12,1,13,0.00
2013-1-17,71,64,54,70,59,46,96,85,65,30.10,29.92,15,2,21,0.18
2013-1-18,64,56,44,55,47,37,79,72,59,30.26,30.10,19,4,21,0.00
2013-1-19,76,66,55,62,56,48,83,71,57,30.21,30.06,16,4,16,0.00
2013-1-20,75,66,61,64,59,56,89,79,65,30.12,29.98,13,2,13,0.01
2013-1-21,80,67,62,64,58,51,86,74,54,30.04,29.97,13,1,13,0.00
2013-1-22,69,61,53,53,42,31,74,51,28,30.23,30.02,15,2,15,0.00
2013-1-23,71,57,48,48,40,34,82,55,30,30.31,30.22,14,2,15,0.00
2013-1-24,76,59,48,56,50,42,91,74,39,30.29,30.20,12,1,15,0.00
2013-1-25,77,61,50,60,53,48,95,77,39,30.25,30.14,10,1,10,0.00
2013-1-26,78,64,52,60,56,50,94,80,51,30.22,30.12,11,1,12,0.00
2013-1-27,78,66,54,62,57,52,96,76,44,30.25,30.15,12,2,13,0.01
2013-1-28,82,72,63,66,63,59,94,77,52,30.25,30.14,14,2,14,0.00
2013-1-29,85,73,64,69,66,61,96,80,53,30.16,30.01,16,3,19,0.00
2013-1-30,81,74,64,68,66,60,89,79,62,30.01,29.84,25,6,28,0.03
2013-1-31,64,59,52,60,47,36,94,65,44,30.19,29.91,21,4,21,0.15
2013-2-1,69,57,45,47,40,29,74,56,26,30.31,30.17,14,2,14,0.00
2013-2-2,72,58,47,50,44,34,78,61,25,30.25,30.11,14,2,14,0.00
2013-2-3,73,58,46,57,50,43,91,74,53,30.15,30.05,11,1,14,0.00
2013-2-4,74,57,47,54,45,36,91,68,27,30.09,29.98,11,1,12,0.00
2013-2-5,82,63,48,58,51,44,86,68,40,30.03,29.94,12,1,12,0.00
2013-2-6,82,69,61,65,60,56,89,74,49,30.04,29.95,12,1,12,0.00
2013-2-7,82,70,63,68,64,60,94,83,57,29.98,29.81,23,4,23,0.16
2013-2-8,77,67,60,67,62,57,96,84,63,30.02,29.84,17,3,19,0.00
2013-2-9,76,65,56,61,57,52,94,76,44,30.14,30.01,13,3,15,0.00
2013-2-10,80,71,62,64,61,56,86,72,52,30.17,30.07,19,5,21,0.00
2013-2-11,83,72,65,69,65,61,91,79,58,30.12,30.02,19,3,20,0.00
2013-2-12,83,74,68,72,69,66,96,86,67,30.03,29.88,17,3,17,0.00
2013-2-13,82,72,60,73,68,57,96,89,72,29.93,29.79,18,3,18,0.46
2013-2-14,64,62,60,62,60,58,96,94,88,30.00,29.87,16,1,16,0.38
2013-2-15,68,60,56,60,55,52,96,85,61,30.03,29.91,10,1,10,0.03
2013-2-16,75,60,51,55,48,36,90,66,43,30.09,29.89,21,2,22,0.00
2013-2-17,55,48,40,36,29,20,73,49,34,30.30,30.09,20,4,20,0.00
2013-2-18,69,54,38,50,40,27,84,63,32,30.31,30.14,16,2,17,0.00
2013-2-19,80,66,52,63,57,49,92,76,51,30.16,30.02,17,2,17,0.00
2013-2-20,78,66,59,65,61,54,95,84,64,30.06,29.96,10,1,10,0.01
2013-2-21,83,70,59,68,62,54,92,78,57,30.04,29.92,12,2,13,0.00
2013-2-22,86,73,63,71,67,62,95,83,60,30.00,29.93,19,2,20,0.00
2013-2-23,80,74,70,72,70,68,95,89,78,29.93,29.84,13,3,15,0.00
2013-2-24,83,73,70,74,70,68,97,89,69,29.90,29.81,13,1,16,0.00
2013-2-25,83,75,69,73,70,68,95,84,65,29.83,29.70,17,3,17,0.00
2013-2-26,78,74,69,73,69,64,94,83,70,29.78,29.63,20,5,20,0.22
2013-3-1,65,59,54,50,45,39,71,60,50,29.98,29.86,6,2,16,0.00
2013-3-2,62,56,49,45,42,39,79,60,49,30.03,29.93,6,2,19,0.01
2013-3-3,59,50,44,42,37,30,70,60,50,30.11,29.95,9,3,21,0.00
2013-3-4,67,54,43,43,38,30,82,57,36,30.18,30.08,6,1,14,0.00
2013-3-5,79,63,45,62,54,41,89,74,50,30.11,29.97,8,2,18,0.00
2013-3-6,67,61,55,64,48,40,92,64,40,30.09,29.90,11,4,25,0.00
2013-3-7,69,54,45,47,43,34,87,69,35,30.18,30.08,10,1,15,0.00
2013-3-8,75,58,45,51,46,42,94,69,35,30.18,30.08,10,1,10,0.00
2013-3-9,76,63,51,55,50,44,90,65,34,30.16,30.08,17,2,17,0.00
2013-3-10,81,68,59,60,56,52,88,67,42,30.09,29.98,21,4,22,0.00
2013-3-11,81,70,61,64,60,56,87,72,50,30.03,29.81,16,4,21,0.00
2013-3-12,70,65,59,67,60,52,95,83,69,30.00,29.79,21,2,21,0.21
2013-3-13,71,63,58,53,48,40,78,58,35,30.14,29.98,17,3,20,0.00
2013-3-14,64,58,52,53,40,27,77,52,26,30.23,30.12,17,4,19,0.00
2013-3-15,73,58,45,48,43,35,89,62,28,30.24,30.12,10,1,10,0.00
2013-3-16,83,63,48,59,51,44,93,70,30,30.13,30.03,13,2,14,0.00
2013-3-17,80,66,54,64,58,51,95,76,52,30.07,29.92,12,2,15,0.00
2013-3-18,74,69,61,68,64,58,91,84,75,29.97,29.81,16,2,22,0.00
2013-3-19,87,72,63,69,64,61,96,79,51,29.95,29.84,12,1,14,0.00
2013-3-20,75,67,60,66,63,58,94,86,69,29.89,29.75,16,1,18,0.17
2013-3-21,71,60,49,59,45,34,94,61,27,29.94,29.82,12,2,16,0.00
2013-3-22,80,64,48,68,55,44,95,75,39,29.94,29.83,16,2,16,0.26
2013-3-23,84,73,67,75,70,65,96,89,71,29.87,29.72,12,3,15,0.00
2013-3-24,82,74,68,74,71,66,94,89,74,29.72,29.59,22,4,25,0.00
2013-3-25,68,63,58,66,50,40,93,63,44,30.01,29.70,24,3,24,0.00
2013-3-26,62,56,49,45,39,35,65,54,39,30.20,30.00,22,3,22,0.00
2013-3-27,61,52,44,42,37,30,84,59,39,30.29,30.17,16,2,16,0.00
2013-3-28,72,57,44,47,41,31,88,59,28,30.25,30.16,10,1,14,0.00
2013-3-29,78,62,49,53,47,36,90,64,24,30.27,30.15,11,1,14,0.00
2013-3-30,82,66,52,58,54,47,89,68,36,30.19,30.08,15,2,17,0.00
2013-3-31,83,70,58,63,59,54,90,71,43,30.09,29.94,13,2,15,0.00
2013-4-1,87,75,66,71,67,63,91,77,54,29.97,29.89,18,3,20,0.00
2013-4-2,86,72,63,68,64,61,94,78,52,30.03,29.94,9,0,12,0.00
2013-4-3,89,74,64,70,67,62,94,79,46,29.99,29.88,19,3,20,0.07
2013-4-4,74,71,68,71,67,64,97,89,70,29.98,29.80,17,2,19,0.46
2013-4-5,76,68,60,68,62,54,94,83,60,29.97,29.74,14,2,17,0.18
2013-4-6,77,66,57,61,57,52,86,74,51,30.04,29.94,12,2,14,0.00
2013-4-7,85,72,62,65,61,56,92,69,38,30.08,29.98,13,2,13,0.00
2013-4-8,87,75,66,67,62,56,89,66,36,30.06,29.98,14,3,14,0.00
2013-4-9,86,76,65,67,65,62,92,70,47,30.09,29.99,20,3,20,0.00
2013-4-10,91,79,67,68,66,62,88,65,41,30.04,29.90,12,2,12,0.00
2013-4-11,92,79,73,74,71,66,90,77,53,29.90,29.74,22,4,22,0.00
2013-4-12,80,77,72,75,73,69,91,87,83,29.85,29.71,20,3,25,0.00
2013-4-13,90,77,70,73,68,65,93,76,51,29.92,29.82,13,1,13,0.00
2013-4-14,85,76,69,74,69,62,89,79,68,29.93,29.79,24,4,24,0.00
2013-4-15,91,78,70,72,67,62,83,69,52,30.00,29.85,10,1,11,0.00
2013-4-16,93,80,70,77,70,66,93,73,46,30.06,29.96,16,3,17,0.09
2013-4-17,88,80,71,69,66,61,89,65,42,30.07,29.94,15,5,16,0.00
2013-4-18,92,80,71,73,69,65,90,70,48,29.97,29.88,13,2,16,0.00
2013-4-19,92,81,74,75,72,70,91,76,50,29.94,29.87,20,3,23,0.00
2013-4-20,78,71,63,73,64,58,87,79,66,30.08,29.91,17,3,19,0.00
2013-4-21,83,72,62,70,65,58,93,80,62,30.07,29.96,15,4,16,0.07
2013-4-22,82,73,68,70,67,63,96,83,63,30.01,29.91,19,4,19,0.14
2013-4-23,86,75,67,69,65,60,89,72,50,30.04,29.95,15,4,18,0.02
2013-4-24,89,75,66,68,64,57,88,70,37,30.07,30.01,12,2,13,0.00
2013-4-25,93,77,66,71,67,63,93,72,45,30.14,30.04,12,1,13,0.00
2013-4-26,90,78,68,71,68,64,89,72,51,30.17,30.08,12,1,12,0.00
2013-4-27,89,78,71,71,68,63,90,70,45,30.15,30.01,14,3,15,0.00
2013-4-28,92,79,70,70,66,61,82,67,40,30.05,29.90,14,3,15,0.00
2013-4-29,89,79,70,72,68,63,87,71,51,29.95,29.84,13,2,15,0.02
2013-4-30,92,79,70,72,70,66,94,74,45,29.92,29.83,12,2,13,0.05
2013-5-1,76,72,68,73,69,66,95,91,83,29.93,29.84,12,3,12,0.98
2013-5-2,83,74,68,72,69,65,94,84,64,29.89,29.75,14,3,14,0.01
2013-5-3,87,76,69,74,70,65,96,81,59,29.75,29.66,12,1,13,2.50
2013-5-4,86,75,66,72,68,64,94,79,58,29.76,29.62,17,1,20,0.01
2013-5-5,79,71,65,66,58,51,91,64,40,29.87,29.73,21,3,24,0.01
2013-5-6,79,72,65,64,59,56,77,65,49,29.95,29.83,14,1,14,0.00
2013-5-7,84,73,62,64,60,56,83,66,45,29.99,29.90,19,3,19,0.00
2013-5-8,87,74,63,66,62,58,88,68,40,30.07,29.97,15,1,15,0.00
2013-5-9,87,75,64,69,65,61,92,73,52,30.08,30.01,13,1,13,0.00
2013-5-10,95,79,66,70,67,63,95,71,38,30.07,29.93,14,2,14,0.00
2013-5-11,95,81,73,76,73,68,93,77,49,29.98,29.93,15,2,17,0.00
2013-5-12,93,80,72,76,71,68,94,76,49,29.98,29.87,12,1,13,0.00
2013-5-13,86,76,68,70,61,51,88,62,35,30.07,29.94,21,2,21,0.00
2013-5-14,85,73,61,62,50,40,73,46,25,30.15,30.06,14,3,16,0.00
2013-5-15,88,76,64,65,61,54,85,62,33,30.14,30.00,12,2,12,0.00
2013-5-16,92,78,68,69,65,60,85,67,37,30.06,29.93,12,1,12,0.00
2013-5-17,94,80,70,71,67,64,87,67,43,30.02,29.95,13,2,13,0.00
2013-5-18,96,81,72,75,70,64,91,70,42,30.04,29.95,13,1,13,0.00
2013-5-19,94,81,71,75,70,67,93,70,45,30.02,29.92,9,1,10,0.00
2013-5-20,94,81,74,76,70,64,87,71,52,29.99,29.90,15,2,15,0.00
2013-5-21,94,79,72,74,71,66,93,76,50,29.96,29.85,21,2,21,0.01
2013-5-22,92,80,72,75,71,69,90,75,55,29.90,29.82,12,1,12,0.00
2013-5-23,94,82,73,76,72,70,92,75,52,29.94,29.84,14,1,15,0.00
2013-5-24,94,83,74,78,72,67,91,72,53,30.01,29.91,14,1,16,0.00
2013-5-25,93,84,75,72,65,59,80,56,35,30.10,29.98,18,5,18,0.00
2013-5-26,89,80,70,66,59,50,77,52,28,30.14,30.03,15,4,16,0.00
2013-5-27,91,80,71,68,64,60,83,60,36,30.11,29.98,20,4,20,0.00
2013-5-28,92,80,73,77,71,68,92,76,48,30.07,29.94,23,6,25,0.47
2013-5-29,89,80,74,75,71,67,94,77,55,30.01,29.95,21,6,22,0.10
2013-5-30,90,82,76,74,71,69,89,72,54,30.01,29.93,25,8,25,0.00
2013-5-31,89,81,76,75,72,69,85,73,57,30.00,29.92,15,6,18,0.00
2013-6-1,88,80,74,77,74,71,95,81,63,29.97,29.87,14,3,14,0.69
2013-6-2,97,83,74,78,75,73,96,79,52,29.92,29.82,14,2,16,0.00
2013-6-3,93,82,76,78,75,73,94,78,58,29.92,29.82,17,2,17,0.00
2013-6-4,94,83,78,77,74,70,88,74,51,29.93,29.85,15,2,18,0.00
2013-6-5,87,80,75,75,73,70,93,80,62,29.92,29.78,19,4,19,0.16
2013-6-6,84,78,75,77,74,71,97,88,74,29.78,29.58,31,7,31,2.34
2013-6-7,93,83,75,78,74,71,92,76,57,29.90,29.71,17,3,17,0.00
2013-6-8,94,82,74,78,75,72,96,80,57,30.02,29.89,16,2,17,1.63
2013-6-9,93,81,74,80,74,70,98,82,57,30.02,29.93,17,2,17,0.08
2013-6-10,96,84,77,78,75,73,92,77,51,30.01,29.94,15,2,15,0.00
2013-6-11,94,84,77,80,76,71,92,78,60,30.02,29.94,12,1,13,0.00
2013-6-12,94,84,76,80,75,72,90,75,56,30.01,29.93,11,1,12,0.00
2013-6-13,95,85,76,78,75,73,93,75,53,29.98,29.84,13,1,14,0.00
2013-6-14,93,85,79,78,75,73,83,73,56,29.88,29.81,16,3,16,0.00
2013-6-15,94,85,80,79,76,74,87,77,60,29.98,29.84,12,2,12,0.00
2013-6-16,94,85,80,80,77,75,91,77,58,30.00,29.94,13,2,13,0.00
2013-6-17,100,87,78,79,76,73,90,71,47,29.99,29.91,12,1,13,0.00
2013-6-18,99,87,77,79,76,74,91,72,50,29.98,29.90,13,2,13,0.00
2013-6-19,99,87,78,80,77,75,92,73,50,29.96,29.90,14,1,14,0.00
2013-6-20,94,84,78,80,75,71,91,76,53,30.02,29.93,11,1,14,0.17
2013-6-21,92,81,76,81,74,71,95,81,60,30.04,29.96,15,1,16,0.76
2013-6-22,98,83,74,76,73,67,94,74,44,30.04,29.97,15,2,17,0.01
2013-6-23,96,82,73,78,75,70,95,80,53,30.05,29.98,20,2,22,1.59
2013-6-24,93,84,76,77,75,70,97,77,50,30.10,29.98,14,2,18,0.58
2013-6-25,94,83,76,78,75,69,95,78,49,30.06,29.95,18,1,18,0.05
2013-6-26,94,82,76,81,75,72,94,82,54,30.00,29.93,18,2,20,0.30
2013-6-27,97,85,75,79,75,72,93,74,52,29.98,29.87,12,1,13,0.00
2013-6-28,97,86,78,79,76,74,89,73,52,29.90,29.77,21,3,21,0.00
2013-6-29,86,82,79,80,76,74,90,82,71,29.81,29.73,22,2,24,0.47
2013-6-30,96,84,77,80,76,73,94,78,58,29.82,29.73,20,3,24,0.85
2013-7-1,80,77,73,77,75,71,96,93,88,29.91,29.76,20,2,21,2.36
2013-7-2,93,80,74,78,74,72,96,83,60,30.00,29.88,18,3,21,1.13
2013-7-3,94,79,74,78,74,72,96,87,58,30.04,29.95,24,3,24,1.24
2013-7-4,94,80,74,78,74,72,97,85,57,30.07,29.97,23,3,24,0.60
2013-7-5,91,79,74,78,75,72,99,88,60,30.06,29.99,31,3,31,1.18
2013-7-6,93,83,76,78,75,72,95,79,52,30.03,29.95,17,3,19,0.00
2013-7-7,93,83,77,77,75,72,95,79,52,30.06,29.95,18,3,18,0.42
2013-7-8,94,83,76,80,76,72,95,81,55,30.09,29.99,18,2,23,0.77
2013-7-9,96,83,75,78,75,70,96,78,49,30.09,29.97,19,1,19,0.03
2013-7-10,94,84,76,78,74,71,91,75,50,30.02,29.89,15,1,15,0.00
2013-7-11,88,81,77,82,76,73,95,85,69,29.95,29.85,11,1,12,2.10
2013-7-12,93,83,76,79,75,72,94,78,57,29.87,29.81,12,1,12,0.00
2013-7-13,93,81,75,79,75,72,95,83,55,29.90,29.82,12,1,13,0.29
2013-7-14,88,81,76,80,75,72,94,84,65,30.00,29.88,12,2,12,0.12
2013-7-15,93,82,75,78,74,72,91,78,54,30.03,29.94,14,3,17,0.22
2013-7-16,92,81,77,76,73,71,90,79,52,30.07,29.99,34,5,34,0.02
2013-7-17,93,80,72,77,74,68,96,84,52,30.08,29.98,22,3,26,0.67
2013-7-18,89,79,74,77,74,72,95,85,60,30.04,29.96,22,2,25,0.05
2013-7-19,90,79,75,78,74,72,95,86,64,30.05,29.97,16,2,17,0.47
2013-7-20,93,82,75,79,75,72,94,82,58,30.03,29.94,16,1,17,0.00
2013-7-21,84,79,76,78,76,73,94,89,83,30.05,29.97,6,0,7,0.00
2013-7-22,98,87,79,80,78,76,94,76,55,30.06,29.98,17,2,17,0.00
2013-7-23,95,86,79,79,76,74,88,74,54,30.02,29.90,15,3,18,0.00
2013-7-24,95,86,81,79,77,75,85,75,59,29.92,29.84,19,4,20,0.00
2013-7-25,94,85,78,79,77,75,94,77,60,29.93,29.80,19,5,20,0.48
2013-7-26,93,84,78,81,78,75,96,83,59,29.95,29.88,12,1,12,0.07
2013-7-27,96,86,78,78,76,74,93,74,51,29.93,29.85,13,1,13,0.00
2013-7-28,96,84,78,81,76,74,94,78,57,29.98,29.86,13,1,15,0.02
2013-7-29,98,86,76,78,75,65,93,72,37,30.07,29.95,10,0,12,0.01
2013-7-30,99,85,77,80,76,71,91,75,48,30.10,29.99,23,1,26,0.02
2013-7-31,96,85,77,80,76,69,94,75,45,30.05,29.93,12,1,14,0.01
2013-8-1,98,85,79,79,76,72,88,74,50,29.97,29.88,14,1,16,0.00
2013-8-2,99,86,77,79,76,73,91,73,49,29.97,29.87,9,1,9,0.00
2013-8-3,100,88,78,79,76,74,88,71,49,30.02,29.93,17,2,17,0.00
2013-8-4,98,87,80,81,78,76,87,75,56,30.01,29.93,17,2,17,0.03
2013-8-5,99,89,82,82,78,76,86,72,53,29.95,29.86,14,1,18,0.03
2013-8-6,99,83,76,81,77,72,95,84,54,29.91,29.81,19,1,21,1.18
2013-8-7,96,83,76,80,76,71,94,82,56,29.89,29.81,17,2,18,0.17
2013-8-8,94,83,74,82,76,72,95,82,55,29.95,29.84,19,2,19,2.33
2013-8-9,95,81,75,79,75,72,96,84,50,29.99,29.88,16,2,19,1.60
2013-8-10,95,84,75,79,76,73,95,78,52,30.04,29.96,16,2,16,0.00
2013-8-11,95,86,78,80,76,73,91,73,50,30.07,29.98,10,2,13,0.00
2013-8-12,98,87,78,82,78,74,91,75,50,30.05,29.93,10,1,12,0.00
2013-8-13,98,87,79,80,77,75,88,73,50,29.97,29.86,15,1,16,0.00
2013-8-14,99,87,78,81,78,76,95,74,49,29.93,29.85,15,2,16,0.04
2013-8-15,97,86,79,80,76,74,89,75,54,29.96,29.87,17,2,18,0.00
2013-8-16,96,87,79,78,76,72,89,71,50,29.96,29.89,22,1,23,0.29
2013-8-17,96,84,77,80,76,72,96,78,56,30.00,29.90,14,2,16,0.31
2013-8-18,94,83,77,79,77,74,95,82,55,30.02,29.93,14,2,14,0.55
2013-8-19,94,82,74,79,76,72,96,83,52,29.99,29.88,18,2,19,1.30
2013-8-20,95,82,75,80,75,71,96,82,56,30.01,29.92,17,2,17,0.02
2013-8-21,93,82,75,80,76,71,95,83,56,30.03,29.90,21,3,21,0.37
2013-8-22,93,81,74,80,76,72,96,86,59,30.01,29.91,24,2,27,1.44
2013-8-23,94,83,78,80,76,73,96,83,57,29.94,29.88,15,2,16,0.11
2013-8-24,94,83,77,81,76,72,94,81,61,30.04,29.92,15,2,19,0.00
2013-8-25,89,81,77,77,75,73,94,83,62,30.08,30.00,12,2,13,0.01
2013-8-26,92,81,76,78,75,73,96,84,55,30.07,29.93,20,2,22,2.17
2013-8-27,92,81,75,79,74,69,96,82,50,29.98,29.90,14,2,15,0.26
2013-8-28,93,82,73,76,74,70,96,77,48,29.99,29.90,10,1,12,0.00
2013-8-29,94,84,74,78,74,71,92,74,53,29.96,29.87,14,1,14,0.00
2013-8-30,96,84,78,79,76,72,90,78,54,29.92,29.82,12,1,14,0.00
2013-8-31,93,81,74,80,75,72,96,83,62,29.92,29.81,11,1,13,1.49
2013-9-1,95,84,76,80,75,73,94,76,54,29.91,29.84,11,1,13,0.03
2013-9-2,98,85,77,80,76,74,94,76,50,29.94,29.86,13,1,13,0.00
2013-9-3,98,86,77,80,76,74,94,74,51,29.96,29.86,9,1,10,0.03
2013-9-4,95,82,75,80,76,71,96,82,48,30.01,29.89,25,1,25,1.80
2013-9-5,95,83,76,81,76,70,96,81,55,30.02,29.93,15,1,18,0.32
2013-9-6,96,83,76,82,76,72,95,81,56,29.99,29.87,16,2,17,0.00
2013-9-7,93,82,73,77,73,69,92,76,53,29.95,29.85,12,2,12,0.00
2013-9-8,93,83,75,76,73,70,93,74,50,29.90,29.80,13,2,13,0.00
2013-9-9,94,85,76,76,73,69,91,70,48,29.95,29.85,14,3,14,0.00
2013-9-10,93,85,77,76,73,66,90,69,45,30.01,29.92,17,5,18,0.00
2013-9-11,93,84,76,77,72,65,90,68,40,30.00,29.90,19,4,19,0.00
2013-9-12,95,83,77,78,74,72,91,77,50,29.93,29.81,13,1,13,0.00
2013-9-13,95,84,75,79,75,72,95,76,55,29.83,29.75,9,0,10,0.00
2013-9-14,98,85,76,78,75,74,94,74,51,29.91,29.77,10,0,10,0.00
2013-9-15,94,82,74,78,74,69,91,78,51,30.01,29.88,31,3,31,0.10
2013-9-16,93,81,75,76,74,72,93,81,51,30.00,29.90,22,2,22,0.04
2013-9-17,93,82,74,76,74,72,95,78,52,29.98,29.86,16,3,18,0.00
2013-9-18,91,81,76,78,74,72,91,80,58,29.96,29.88,20,4,20,0.05
2013-9-19,92,81,75,79,74,72,96,82,53,29.98,29.88,13,3,13,0.66
2013-9-20,89,82,74,75,73,68,94,75,53,29.95,29.82,12,2,13,0.00
2013-9-21,94,84,75,76,72,68,85,70,50,29.86,29.71,11,1,12,0.00
2013-9-22,93,84,79,81,76,74,90,79,62,29.77,29.68,16,1,17,0.00
2013-9-23,82,79,77,80,77,75,98,92,84,29.87,29.75,16,2,19,1.05
2013-9-24,83,79,75,78,76,74,100,92,84,29.88,29.76,17,1,17,1.37
2013-9-25,81,77,72,78,74,70,97,93,83,29.84,29.72,22,2,22,1.45
2013-9-26,95,83,76,81,77,71,94,81,61,29.81,29.71,14,2,16,0.02
2013-9-27,79,73,72,71,70,69,92,89,77,29.88,29.81,10,1,10,0.00
2013-10-7,89,81,75,80,76,73,96,84,69,29.79,29.68,12,4,24,0.66
2013-10-8,91,82,76,78,75,71,91,79,62,29.88,29.73,7,2,17,0.01
2013-10-9,82,76,70,72,69,65,87,80,68,29.98,29.88,7,2,16,0.00
2013-10-10,88,76,66,72,68,64,93,78,57,29.99,29.90,5,1,12,0.00
2013-10-11,89,77,68,71,68,64,95,74,50,29.97,29.88,5,1,12,0.00
2013-10-12,90,77,68,69,65,62,93,70,41,29.98,29.90,4,1,13,0.00
2013-10-13,88,80,66,72,65,59,93,62,39,30.02,29.92,12,2,12,0.00
2013-10-14,88,77,68,72,68,64,92,74,51,29.98,29.87,14,2,15,0.00
2013-10-15,86,74,68,73,69,66,93,83,64,29.94,29.84,15,1,15,0.00
2013-10-16,87,76,69,72,69,67,95,81,59,29.90,29.84,9,0,9,0.00
2013-10-17,94,79,70,75,71,68,96,78,47,29.91,29.83,11,1,11,0.00
2013-10-18,95,81,72,75,72,70,94,78,48,29.91,29.82,12,1,13,0.00
2013-10-19,94,81,73,78,75,71,94,82,57,29.88,29.80,11,1,12,0.00
2013-10-20,94,81,75,77,74,71,95,79,53,29.88,29.80,10,0,10,0.00
2013-10-21,95,81,75,77,74,72,94,79,50,29.93,29.85,11,1,12,0.00
2013-10-22,94,80,72,78,74,70,96,83,56,29.88,29.76,21,1,21,0.30
2013-10-23,81,75,69,74,65,56,96,73,49,29.95,29.74,20,3,24,0.01
2013-10-24,74,67,62,58,51,45,79,56,45,30.10,29.95,13,2,15,0.00
2013-10-25,83,69,58,62,56,50,91,65,35,30.18,30.09,18,2,18,0.00
2013-10-26,82,69,60,61,58,54,87,69,41,30.15,30.04,12,2,13,0.00
2013-10-27,79,68,58,63,58,53,93,71,46,30.07,29.99,11,2,12,0.00
2013-10-28,84,71,61,64,59,47,88,67,28,30.12,30.03,10,2,12,0.00
2013-10-29,84,75,65,67,64,62,94,72,48,30.16,30.06,14,4,14,0.00
2013-10-30,86,77,69,70,67,65,90,73,51,30.16,30.02,11,3,12,0.00
2013-10-31,88,77,68,71,68,66,94,76,50,30.04,29.90,13,1,15,0.00
2013-11-1,89,79,72,76,73,70,94,83,62,29.91,29.80,12,2,18,0.00
2013-11-2,78,73,65,76,70,62,94,91,83,29.88,29.74,17,1,17,1.00